Hanalei, HI

6:36 PM HST on March 05, 2015 (GMT -1000)
North Shore of Kauai | Change Station
CLOSE
Current Station
Personal Weather Station
Location: Princeville, HI
Elevation: 200 ft
Nearby Weather Stations

Elev 200 ft 22.23 °N, 159.48 °W | Updated 16 seconds ago

Overcast
Overcast
66.5 °F
Feels Like 66.5 °F
N
5.6
Wind Variable Wind from NE
Gusts 12.1 mph

Today
High -- | Low -- °F
--% Chance of Precip.
Yesterday
High -- | Low -- °F
Precip. -- in
6:55 AM 6:43 PM
Full, 100% visible
Pressure 29.96 in
Visibility 10.0 miles
Clouds Scattered Clouds 3000 ft
Mostly Cloudy 3800 ft
Overcast 4600 ft
Dew Point 58 °F
Humidity 74%
Rainfall in
Snow Depth Not available.
UV 0 out of 12
Pollen Not available.
Air Quality Not available.
Flu Activity Not available.
METAR PHLI 060353Z 02019G25KT 10SM -RA SCT030 BKN038 OVC046 22/15 A2996 RMK AO2 PK WND 02026/0315 RAB51 SLP144 P0000 T02220150

More Conditions Fewer Conditions

Pressure 29.96 in
Visibility 10.0 miles
Clouds Scattered Clouds 3000 ft
Mostly Cloudy 3800 ft
Overcast 4600 ft
Dew Point 58 °F
Humidity 74%
Rainfall in
Snow Depth Not available.
UV 0 out of 12
Pollen Not available.
Air Quality Not available.
Flu Activity Not available.
METAR PHLI 060353Z 02019G25KT 10SM -RA SCT030 BKN038 OVC046 22/15 A2996 RMK AO2 PK WND 02026/0315 RAB51 SLP144 P0000 T02220150

More Conditions Fewer Conditions

10-Day Weather Forecast

Almanac

Astronomy

Mar. 05, 2015 Rise Set
Actual Time
Civil Twilight
Nautical Twilight
Astronomical Twilight
Moon
Length of Visible Light
Length of Day
Tomorrow will be .
, % of the Moon is Illuminated

Today's Extremes

State Highs State Lows

Community

WunderPhotos

Upload Photos

1,803,178 photos uploaded!

WunderBlogs® & News

Nearby

Air Quality

  Air Quality AQ Index Pollutant
Not available.

Snow Depth

Station Depth Elevation

Earthquake Activity

City Distance Mag. Time & Date
Minimum magnitude displayed is 2.5.

Coastal Water Temperatures

Place Temperature

Nearby Weather Stations